Time;durP1;ratioP1;P1;durP2;ratioP2;P2;SDS_P1;SDS_P2;PMS_P1;PMS_P2;Temp;Humidity;BMP_temperature;BMP_pressure;BME280_temperature;BME280_humidity;BME280_pressure;Samples;Min_cycle;Max_cycle;Signal;HPM_P1;HPM_P2
2022/04/09 00:01:17;;;;;;;7.75;1.40;;;;;;;;;;5106726;27;20516;-84
2022/04/09 00:03:43;;;;;;;13.63;2.22;;;;;;;;;;5102900;27;20482;-83
2022/04/09 00:06:09;;;;;;;14.80;2.00;;;;;;;;;;5045447;28;20055;-82
2022/04/09 00:08:36;;;;;;;17.23;2.03;;;;;;;;;;5062671;28;20050;-83
2022/04/09 00:11:02;;;;;;;12.70;2.70;;;;;;;;;;5100482;28;20052;-82
2022/04/09 00:13:28;;;;;;;11.68;1.70;;;;;;;;;;5081291;28;20078;-82
2022/04/09 00:15:54;;;;;;;9.00;1.98;;;;;;;;;;5101301;27;20039;-81
2022/04/09 00:18:21;;;;;;;19.83;2.65;;;;;;;;;;5100784;27;20645;-83
2022/04/09 00:20:47;;;;;;;14.57;1.88;;;;;;;;;;5097304;27;20478;-79
2022/04/09 00:23:13;;;;;;;16.52;2.40;;;;;;;;;;5083753;27;20546;-81
2022/04/09 00:25:39;;;;;;;23.70;2.58;;;;;;;;;;5100613;27;20036;-81
2022/04/09 00:28:05;;;;;;;11.93;2.17;;;;;;;;;;5097531;27;20561;-78
2022/04/09 00:30:31;;;;;;;9.57;1.45;;;;;;;;;;5078702;28;20035;-81
2022/04/09 00:32:57;;;;;;;13.65;2.22;;;;;;;;;;5100837;27;20158;-82
2022/04/09 00:35:23;;;;;;;9.02;1.33;;;;;;;;;;5100580;27;20126;-83
2022/04/09 00:37:49;;;;;;;5.20;1.23;;;;;;;;;;5101652;27;20085;-84
2022/04/09 00:40:19;;;;;;;9.82;1.42;;;;;;;;;;5097820;28;20044;-81
2022/04/09 00:42:45;;;;;;;4.43;1.52;;;;;;;;;;5084420;27;20032;-82
2022/04/09 00:45:12;;;;;;;3.95;0.95;;;;;;;;;;5101876;27;20437;-84
2022/04/09 00:47:38;;;;;;;5.13;1.05;;;;;;;;;;5101792;27;20039;-83
2022/04/09 00:50:05;;;;;;;7.78;1.55;;;;;;;;;;5100627;28;20351;-82
2022/04/09 00:52:33;;;;;;;9.07;1.65;;;;;;;;;;5101072;28;20039;-81
2022/04/09 00:55:02;;;;;;;7.45;1.30;;;;;;;;;;5082943;28;20054;-84
2022/04/09 00:57:30;;;;;;;7.30;1.20;;;;;;;;;;5098236;28;20044;-82
2022/04/09 00:59:56;;;;;;;5.10;1.02;;;;;;;;;;5100472;27;20043;-81
2022/04/09 01:02:22;;;;;;;9.10;2.40;;;;;;;;;;5049396;28;20456;-80
2022/04/09 01:04:49;;;;;;;6.88;1.30;;;;;;;;;;5100763;28;20111;-81
2022/04/09 01:07:15;;;;;;;7.63;1.30;;;;;;;;;;5102057;28;20044;-82
2022/04/09 01:09:45;;;;;;;11.40;1.30;;;;;;;;;;5081970;27;20097;-81
2022/04/09 01:12:11;;;;;;;9.57;1.75;;;;;;;;;;5097818;28;20032;-81
2022/04/09 01:14:38;;;;;;;11.32;1.23;;;;;;;;;;5098072;27;20032;-82
2022/04/09 01:17:04;;;;;;;10.32;1.13;;;;;;;;;;5064578;28;20510;-78
2022/04/09 01:19:31;;;;;;;7.80;1.08;;;;;;;;;;5100624;28;20067;-81
2022/04/09 01:21:59;;;;;;;9.30;1.50;;;;;;;;;;5106137;27;20045;-83
2022/04/09 01:24:50;;;;;;;7.40;1.27;;;;;;;;;;5076853;28;20050;-84
2022/04/09 01:27:20;;;;;;;14.65;1.83;;;;;;;;;;5104609;28;20036;-84
2022/04/09 01:29:46;;;;;;;15.40;1.85;;;;;;;;;;5079577;28;20048;-83
2022/04/09 01:32:12;;;;;;;6.10;1.30;;;;;;;;;;5094647;28;20075;-83
2022/04/09 01:34:39;;;;;;;7.53;1.40;;;;;;;;;;5064295;28;20119;-82
2022/04/09 01:37:09;;;;;;;10.55;1.70;;;;;;;;;;5101448;28;20051;-81
2022/04/09 01:39:38;;;;;;;6.18;1.40;;;;;;;;;;5099554;28;20058;-84
2022/04/09 01:42:10;;;;;;;10.13;1.58;;;;;;;;;;5098374;28;20040;-81
2022/04/09 01:44:36;;;;;;;16.92;2.33;;;;;;;;;;5109510;28;20028;-80
2022/04/09 01:47:02;;;;;;;9.05;1.50;;;;;;;;;;5117142;28;20062;-82
2022/04/09 01:49:28;;;;;;;10.57;1.70;;;;;;;;;;5113965;28;20036;-83
2022/04/09 01:51:54;;;;;;;12.70;2.20;;;;;;;;;;5096412;28;20028;-84
2022/04/09 01:54:20;;;;;;;11.93;2.10;;;;;;;;;;5099426;28;20044;-83
2022/04/09 01:56:46;;;;;;;9.77;1.60;;;;;;;;;;5098113;28;20097;-83
2022/04/09 01:59:12;;;;;;;8.07;1.60;;;;;;;;;;5099415;28;20058;-83
2022/04/09 02:01:39;;;;;;;13.05;1.88;;;;;;;;;;5099656;28;20088;-83
2022/04/09 02:04:05;;;;;;;9.10;1.95;;;;;;;;;;5100843;28;20158;-83
2022/04/09 02:06:32;;;;;;;6.60;1.48;;;;;;;;;;5097075;28;20047;-82
2022/04/09 02:08:59;;;;;;;7.65;1.25;;;;;;;;;;5078094;28;20042;-82
2022/04/09 02:11:26;;;;;;;16.05;1.50;;;;;;;;;;5095904;28;20048;-82
2022/04/09 02:13:52;;;;;;;12.38;2.00;;;;;;;;;;5065140;28;20043;-84
2022/04/09 02:16:18;;;;;;;8.40;1.85;;;;;;;;;;5081070;28;21264;-81
2022/04/09 02:18:44;;;;;;;11.70;2.13;;;;;;;;;;5098940;28;20046;-81
2022/04/09 02:21:11;;;;;;;14.32;1.95;;;;;;;;;;5095631;28;20038;-81
2022/04/09 02:23:37;;;;;;;6.20;1.55;;;;;;;;;;5099490;28;20081;-81
2022/04/09 02:26:04;;;;;;;10.70;1.83;;;;;;;;;;5097604;28;20043;-83
2022/04/09 02:28:31;;;;;;;5.93;1.80;;;;;;;;;;5097087;28;20048;-83
2022/04/09 02:31:03;;;;;;;13.65;1.95;;;;;;;;;;5099960;28;20057;-84
2022/04/09 02:33:29;;;;;;;11.60;1.95;;;;;;;;;;5101112;28;20517;-83
2022/04/09 02:35:55;;;;;;;8.43;1.63;;;;;;;;;;5077439;28;20502;-83
2022/04/09 02:38:22;;;;;;;10.43;1.77;;;;;;;;;;5100392;28;20130;-83
2022/04/09 02:40:48;;;;;;;21.10;2.05;;;;;;;;;;5060459;28;20047;-84
2022/04/09 02:43:14;;;;;;;15.20;2.50;;;;;;;;;;5096832;28;20067;-82
2022/04/09 02:45:41;;;;;;;9.00;2.08;;;;;;;;;;5105397;27;20148;-82
2022/04/09 02:48:07;;;;;;;9.23;1.60;;;;;;;;;;5102720;28;20036;-80
2022/04/09 02:50:33;;;;;;;6.65;1.65;;;;;;;;;;5099008;28;20043;-82
2022/04/09 02:52:59;;;;;;;12.65;1.90;;;;;;;;;;5102126;27;20462;-82
2022/04/09 02:55:25;;;;;;;11.05;1.48;;;;;;;;;;5051902;28;20058;-81
2022/04/09 02:57:51;;;;;;;11.40;1.60;;;;;;;;;;5099653;27;20024;-83
2022/04/09 03:00:18;;;;;;;15.82;1.77;;;;;;;;;;5101494;28;20043;-86
2022/04/09 03:02:44;;;;;;;14.57;1.95;;;;;;;;;;5070954;28;20087;-84
2022/04/09 03:05:10;;;;;;;12.32;1.90;;;;;;;;;;5085544;28;21177;-85
2022/04/09 03:07:37;;;;;;;22.92;2.05;;;;;;;;;;5084672;28;20093;-80
2022/04/09 03:10:03;;;;;;;13.30;2.58;;;;;;;;;;5082700;28;20047;-81
2022/04/09 03:12:29;;;;;;;12.93;1.70;;;;;;;;;;5102895;28;20047;-80
2022/04/09 03:14:55;;;;;;;11.40;1.80;;;;;;;;;;5102884;28;20039;-80
2022/04/09 03:17:21;;;;;;;13.98;2.33;;;;;;;;;;5082057;28;20052;-81
2022/04/09 03:19:47;;;;;;;9.10;2.25;;;;;;;;;;5080986;28;20042;-81
2022/04/09 03:22:13;;;;;;;15.00;2.20;;;;;;;;;;5099426;28;20036;-80
2022/04/09 03:24:39;;;;;;;12.57;2.38;;;;;;;;;;5084331;28;20119;-80
2022/04/09 03:27:06;;;;;;;9.30;2.00;;;;;;;;;;5065626;28;20028;-82
2022/04/09 03:29:32;;;;;;;13.02;2.42;;;;;;;;;;5079249;28;20110;-80
2022/04/09 03:31:58;;;;;;;19.50;2.22;;;;;;;;;;5082909;28;20579;-80
2022/04/09 03:34:24;;;;;;;16.63;2.13;;;;;;;;;;5081259;28;20086;-82
2022/04/09 03:36:51;;;;;;;12.73;2.45;;;;;;;;;;5082703;28;20152;-80
2022/04/09 03:39:17;;;;;;;14.75;2.20;;;;;;;;;;5082461;28;20055;-81
2022/04/09 03:41:43;;;;;;;16.73;2.90;;;;;;;;;;5065205;28;20059;-81
2022/04/09 03:44:09;;;;;;;15.02;2.22;;;;;;;;;;5083580;28;20068;-80
2022/04/09 03:46:35;;;;;;;11.98;2.13;;;;;;;;;;5098936;28;20051;-80
2022/04/09 03:49:02;;;;;;;13.38;2.05;;;;;;;;;;5082109;28;20035;-81
2022/04/09 03:51:28;;;;;;;9.88;1.52;;;;;;;;;;5099041;28;20051;-82
2022/04/09 03:53:54;;;;;;;15.25;1.92;;;;;;;;;;5100574;28;20054;-81
2022/04/09 03:56:22;;;;;;;10.95;1.65;;;;;;;;;;5103034;28;20046;-82
2022/04/09 03:58:49;;;;;;;10.63;1.50;;;;;;;;;;5116000;28;20036;-82
2022/04/09 04:01:15;;;;;;;16.65;1.55;;;;;;;;;;5098628;28;20085;-79
2022/04/09 04:03:41;;;;;;;14.20;2.03;;;;;;;;;;5106982;28;20122;-80
2022/04/09 04:06:07;;;;;;;16.40;1.92;;;;;;;;;;5098091;28;20036;-80
2022/04/09 04:08:33;;;;;;;7.93;1.67;;;;;;;;;;5098208;28;20043;-79
2022/04/09 04:10:59;;;;;;;7.63;1.20;;;;;;;;;;5099714;28;20052;-79
2022/04/09 04:13:25;;;;;;;8.35;1.50;;;;;;;;;;5099702;28;20804;-81
2022/04/09 04:15:54;;;;;;;11.32;1.38;;;;;;;;;;5079230;28;20039;-82
2022/04/09 04:18:20;;;;;;;10.65;2.05;;;;;;;;;;5075610;28;20050;-81
2022/04/09 04:20:46;;;;;;;13.52;1.63;;;;;;;;;;5081249;28;20035;-80
2022/04/09 04:23:12;;;;;;;10.82;1.52;;;;;;;;;;5078494;28;20054;-81
2022/04/09 04:25:38;;;;;;;14.18;1.25;;;;;;;;;;5101596;28;20031;-80
2022/04/09 04:28:04;;;;;;;7.75;1.45;;;;;;;;;;5082394;28;20080;-80
2022/04/09 04:30:30;;;;;;;18.08;2.10;;;;;;;;;;5096642;28;20036;-81
2022/04/09 04:32:56;;;;;;;12.15;1.73;;;;;;;;;;5079041;28;20513;-81
2022/04/09 04:35:22;;;;;;;13.45;2.10;;;;;;;;;;5102310;28;20068;-82
2022/04/09 04:37:49;;;;;;;6.97;1.52;;;;;;;;;;5080842;28;20055;-80
2022/04/09 04:40:16;;;;;;;13.80;3.35;;;;;;;;;;5101588;28;20079;-81
2022/04/09 04:42:42;;;;;;;16.05;2.58;;;;;;;;;;5099017;28;20047;-81
2022/04/09 04:45:10;;;;;;;7.70;2.00;;;;;;;;;;5050248;28;20044;-80
2022/04/09 04:47:42;;;;;;;13.82;1.90;;;;;;;;;;5097571;28;20530;-81
2022/04/09 04:50:11;;;;;;;11.80;2.22;;;;;;;;;;5099233;28;20156;-78
2022/04/09 04:52:37;;;;;;;8.25;1.73;;;;;;;;;;5064142;28;20074;-82
2022/04/09 04:55:04;;;;;;;11.15;1.77;;;;;;;;;;5099572;28;20100;-82
2022/04/09 04:57:39;;;;;;;12.35;2.28;;;;;;;;;;5101451;28;20407;-82
2022/04/09 05:00:06;;;;;;;13.05;1.83;;;;;;;;;;5098273;28;20403;-79
2022/04/09 05:02:32;;;;;;;14.38;3.03;;;;;;;;;;5064005;28;20044;-82
2022/04/09 05:04:58;;;;;;;17.65;2.28;;;;;;;;;;5100475;28;20122;-78
2022/04/09 05:07:24;;;;;;;13.05;1.85;;;;;;;;;;5097795;28;20103;-80
2022/04/09 05:09:50;;;;;;;14.75;2.33;;;;;;;;;;5101005;28;20086;-80
2022/04/09 05:12:16;;;;;;;10.95;2.25;;;;;;;;;;5099234;28;20086;-82
2022/04/09 05:14:42;;;;;;;14.43;2.70;;;;;;;;;;5101407;28;20035;-81
2022/04/09 05:17:11;;;;;;;11.65;1.77;;;;;;;;;;5098521;28;20052;-83
2022/04/09 05:19:38;;;;;;;13.73;1.90;;;;;;;;;;5098307;28;20122;-82
2022/04/09 05:22:04;;;;;;;9.60;1.60;;;;;;;;;;5100743;28;21059;-82
2022/04/09 05:24:30;;;;;;;15.23;2.72;;;;;;;;;;5111520;28;20020;-81
2022/04/09 05:26:56;;;;;;;17.67;1.80;;;;;;;;;;5115146;28;20023;-81
2022/04/09 05:29:23;;;;;;;12.18;2.20;;;;;;;;;;5117686;28;20043;-81
2022/04/09 05:31:49;;;;;;;8.63;1.58;;;;;;;;;;5100424;28;20499;-81
2022/04/09 05:34:15;;;;;;;16.25;1.80;;;;;;;;;;5102905;28;20067;-83
2022/04/09 05:36:41;;;;;;;14.45;1.90;;;;;;;;;;5095925;28;20102;-82
2022/04/09 05:39:07;;;;;;;13.30;1.40;;;;;;;;;;5095318;28;20044;-81
2022/04/09 05:41:33;;;;;;;12.23;1.50;;;;;;;;;;5080035;28;20028;-83
2022/04/09 05:44:00;;;;;;;14.63;1.70;;;;;;;;;;5076544;28;20062;-81
2022/04/09 05:46:26;;;;;;;11.63;2.08;;;;;;;;;;5098212;28;20048;-82
2022/04/09 05:48:55;;;;;;;9.57;2.75;;;;;;;;;;5082073;28;20047;-80
2022/04/09 05:51:24;;;;;;;7.18;2.17;;;;;;;;;;5094582;28;20104;-82
2022/04/09 05:53:53;;;;;;;6.70;1.50;;;;;;;;;;5099657;28;20039;-83
2022/04/09 05:56:19;;;;;;;10.88;1.63;;;;;;;;;;5077324;28;20108;-78
2022/04/09 05:58:45;;;;;;;8.85;2.22;;;;;;;;;;5098497;28;20034;-82
2022/04/09 06:01:11;;;;;;;14.75;3.22;;;;;;;;;;5095999;28;20051;-80
2022/04/09 06:03:40;;;;;;;12.63;1.88;;;;;;;;;;5076790;28;20089;-82
2022/04/09 06:06:06;;;;;;;9.32;1.90;;;;;;;;;;5095821;28;20043;-82
2022/04/09 06:08:41;;;;;;;11.00;1.77;;;;;;;;;;5098580;28;20390;-83
2022/04/09 06:11:08;;;;;;;6.30;1.23;;;;;;;;;;5095600;28;20047;-80
2022/04/09 06:13:34;;;;;;;8.82;1.63;;;;;;;;;;5076177;28;20071;-82
2022/04/09 06:16:05;;;;;;;6.10;1.40;;;;;;;;;;5075910;28;20118;-80
2022/04/09 06:18:31;;;;;;;14.25;2.72;;;;;;;;;;5103590;28;21786;-82
2022/04/09 06:20:57;;;;;;;8.57;1.48;;;;;;;;;;5068351;28;20105;-83
2022/04/09 06:23:23;;;;;;;8.43;1.40;;;;;;;;;;5101645;28;20040;-82
2022/04/09 06:25:49;;;;;;;6.63;1.10;;;;;;;;;;5105549;28;20070;-83
2022/04/09 06:28:15;;;;;;;10.48;1.80;;;;;;;;;;5102370;28;20035;-82
2022/04/09 06:30:42;;;;;;;8.73;1.00;;;;;;;;;;5082235;28;20130;-83
2022/04/09 06:33:08;;;;;;;5.63;1.85;;;;;;;;;;5103125;27;20070;-82
2022/04/09 06:35:34;;;;;;;15.60;1.65;;;;;;;;;;5103322;28;20138;-83
2022/04/09 06:38:02;;;;;;;11.02;1.70;;;;;;;;;;5102835;28;20586;-82
2022/04/09 06:40:28;;;;;;;7.00;1.58;;;;;;;;;;5082009;28;20053;-84
2022/04/09 06:42:58;;;;;;;9.40;1.35;;;;;;;;;;5103723;28;20055;-79
2022/04/09 06:45:25;;;;;;;8.57;1.42;;;;;;;;;;5106600;28;20054;-80
2022/04/09 06:47:51;;;;;;;6.10;1.30;;;;;;;;;;5102634;28;20035;-82
2022/04/09 06:50:18;;;;;;;9.30;1.60;;;;;;;;;;5100019;28;20114;-82
2022/04/09 06:52:45;;;;;;;15.13;2.00;;;;;;;;;;5101039;28;20039;-83
2022/04/09 06:55:11;;;;;;;18.08;2.42;;;;;;;;;;5104430;27;20046;-80
2022/04/09 06:57:38;;;;;;;15.38;2.85;;;;;;;;;;5103235;28;20040;-82
2022/04/09 07:00:11;;;;;;;9.02;2.45;;;;;;;;;;5105184;27;20035;-82
2022/04/09 07:02:37;;;;;;;12.77;1.58;;;;;;;;;;5103431;28;20036;-81
2022/04/09 07:05:03;;;;;;;5.53;1.27;;;;;;;;;;5102602;28;20067;-80
2022/04/09 07:07:29;;;;;;;6.88;1.20;;;;;;;;;;5104521;28;20027;-82
2022/04/09 07:10:07;;;;;;;11.90;1.30;;;;;;;;;;5086239;28;20055;-82
2022/04/09 07:12:33;;;;;;;14.70;1.52;;;;;;;;;;5101044;28;20130;-81
2022/04/09 07:14:59;;;;;;;8.32;1.50;;;;;;;;;;5104304;28;20081;-83
2022/04/09 07:17:26;;;;;;;18.33;3.90;;;;;;;;;;5084266;28;20167;-82
2022/04/09 07:19:53;;;;;;;9.75;1.90;;;;;;;;;;5106185;28;20040;-82
2022/04/09 07:22:19;;;;;;;8.50;1.90;;;;;;;;;;5083608;28;20039;-82
2022/04/09 07:24:45;;;;;;;11.82;1.75;;;;;;;;;;5106932;28;20656;-82
2022/04/09 07:27:11;;;;;;;12.60;2.53;;;;;;;;;;5100782;28;20483;-83
2022/04/09 07:29:37;;;;;;;24.35;2.47;;;;;;;;;;5098041;28;20138;-81
2022/04/09 07:32:04;;;;;;;17.55;3.33;;;;;;;;;;5099777;28;20036;-82
2022/04/09 07:34:30;;;;;;;11.50;1.48;;;;;;;;;;5097844;28;20050;-80
2022/04/09 07:36:56;;;;;;;12.00;1.85;;;;;;;;;;5106479;28;20039;-82
2022/04/09 07:39:22;;;;;;;12.93;2.78;;;;;;;;;;5114508;28;20051;-81
2022/04/09 07:41:48;;;;;;;12.50;2.10;;;;;;;;;;5110578;28;20418;-81
2022/04/09 07:44:14;;;;;;;12.52;3.25;;;;;;;;;;5106378;28;20058;-82
2022/04/09 07:46:40;;;;;;;22.55;5.05;;;;;;;;;;5105820;28;20124;-81
2022/04/09 07:49:06;;;;;;;12.02;2.22;;;;;;;;;;5105724;28;20040;-79
2022/04/09 07:51:33;;;;;;;16.05;2.08;;;;;;;;;;5099395;28;20052;-81
2022/04/09 07:53:59;;;;;;;11.15;1.88;;;;;;;;;;5098957;28;20867;-83
2022/04/09 07:56:26;;;;;;;12.07;1.70;;;;;;;;;;5110442;27;20051;-82
2022/04/09 07:58:52;;;;;;;12.60;2.63;;;;;;;;;;5107972;27;20040;-82
2022/04/09 08:01:18;;;;;;;20.45;3.00;;;;;;;;;;5109722;28;20047;-81
2022/04/09 08:03:51;;;;;;;16.75;2.05;;;;;;;;;;5067986;28;20065;-82
2022/04/09 08:06:17;;;;;;;12.52;2.22;;;;;;;;;;5085875;28;20957;-81
2022/04/09 08:08:43;;;;;;;16.45;2.60;;;;;;;;;;5080188;28;20074;-82
2022/04/09 08:11:10;;;;;;;13.15;2.50;;;;;;;;;;5098009;28;20127;-80
2022/04/09 08:13:36;;;;;;;16.15;2.25;;;;;;;;;;5081758;28;20043;-83
2022/04/09 08:16:03;;;;;;;9.07;2.13;;;;;;;;;;5081676;28;20597;-82
2022/04/09 08:18:29;;;;;;;11.98;1.48;;;;;;;;;;5104678;28;20040;-80
2022/04/09 08:20:55;;;;;;;15.30;2.55;;;;;;;;;;5105668;28;20503;-83
2022/04/09 08:23:21;;;;;;;13.65;2.63;;;;;;;;;;5081611;28;20558;-83
2022/04/09 08:25:48;;;;;;;19.20;2.40;;;;;;;;;;5102365;28;20080;-83
2022/04/09 08:28:20;;;;;;;13.40;2.28;;;;;;;;;;5103073;28;20242;-82
2022/04/09 08:30:46;;;;;;;13.50;2.47;;;;;;;;;;5085393;28;20051;-83
2022/04/09 08:33:15;;;;;;;8.77;1.75;;;;;;;;;;5106559;28;20048;-82
2022/04/09 08:35:43;;;;;;;9.80;2.03;;;;;;;;;;5103099;28;20059;-84
2022/04/09 08:38:09;;;;;;;9.38;1.75;;;;;;;;;;5105364;28;20058;-83
2022/04/09 08:40:37;;;;;;;8.57;1.58;;;;;;;;;;5106858;28;20448;-84
2022/04/09 08:43:04;;;;;;;9.73;1.58;;;;;;;;;;5103897;28;20038;-84
2022/04/09 08:45:35;;;;;;;5.57;2.30;;;;;;;;;;5103119;28;20050;-81
2022/04/09 08:48:02;;;;;;;6.68;1.30;;;;;;;;;;5108693;28;20071;-81
2022/04/09 08:50:29;;;;;;;11.93;1.35;;;;;;;;;;5110031;27;20028;-82
2022/04/09 08:52:55;;;;;;;11.45;1.42;;;;;;;;;;5088120;28;20071;-81
2022/04/09 08:55:21;;;;;;;7.82;1.15;;;;;;;;;;5102950;27;20043;-81
2022/04/09 08:57:48;;;;;;;3.08;0.60;;;;;;;;;;5099244;28;20051;-84
2022/04/09 09:00:17;;;;;;;4.35;1.20;;;;;;;;;;5106280;28;20077;-81
2022/04/09 09:02:50;;;;;;;8.38;1.55;;;;;;;;;;5106250;28;20066;-83
2022/04/09 09:05:39;;;;;;;11.88;1.33;;;;;;;;;;5106957;28;20051;-82
2022/04/09 09:08:07;;;;;;;10.07;2.08;;;;;;;;;;5102453;28;20112;-83
2022/04/09 09:10:34;;;;;;;7.05;1.15;;;;;;;;;;5099342;28;20118;-82
2022/04/09 09:13:05;;;;;;;7.15;0.80;;;;;;;;;;5104643;28;21123;-83
2022/04/09 09:15:55;;;;;;;7.75;1.30;;;;;;;;;;5105046;28;20130;-83
2022/04/09 09:18:29;;;;;;;4.47;1.00;;;;;;;;;;5102402;27;20031;-81
2022/04/09 09:20:59;;;;;;;4.03;0.77;;;;;;;;;;5102581;28;20058;-83
2022/04/09 09:23:30;;;;;;;6.47;0.80;;;;;;;;;;5103176;28;20046;-83
2022/04/09 09:25:56;;;;;;;5.55;1.10;;;;;;;;;;5101139;28;20040;-84
2022/04/09 09:28:26;;;;;;;7.80;1.17;;;;;;;;;;5106974;28;20056;-83
2022/04/09 09:30:52;;;;;;;7.97;1.35;;;;;;;;;;5106980;28;20036;-83
2022/04/09 09:33:20;;;;;;;5.75;1.40;;;;;;;;;;5106813;27;20066;-83
2022/04/09 09:35:49;;;;;;;12.52;1.50;;;;;;;;;;5070124;28;20067;-81
2022/04/09 09:38:19;;;;;;;8.82;1.30;;;;;;;;;;5108818;28;20052;-83
2022/04/09 09:40:45;;;;;;;12.93;2.10;;;;;;;;;;5095859;28;20499;-83
2022/04/09 09:43:20;;;;;;;11.13;1.55;;;;;;;;;;5100311;28;20036;-83
2022/04/09 09:45:46;;;;;;;20.58;2.80;;;;;;;;;;5089934;28;20051;-83
2022/04/09 09:48:26;;;;;;;10.57;2.67;;;;;;;;;;5084573;28;20039;-81
2022/04/09 09:50:54;;;;;;;13.68;1.98;;;;;;;;;;5114999;28;20066;-82
2022/04/09 09:53:31;;;;;;;15.18;3.33;;;;;;;;;;5107486;28;20052;-80
2022/04/09 09:55:58;;;;;;;7.65;1.63;;;;;;;;;;5088185;28;20096;-83
2022/04/09 09:58:25;;;;;;;19.95;2.78;;;;;;;;;;5106751;28;20051;-82
2022/04/09 10:00:52;;;;;;;8.18;1.58;;;;;;;;;;5101847;28;20048;-81
2022/04/09 10:03:19;;;;;;;18.63;2.15;;;;;;;;;;5107048;27;20043;-82
2022/04/09 10:05:47;;;;;;;11.82;2.13;;;;;;;;;;5082350;28;20102;-82
2022/04/09 10:08:13;;;;;;;12.40;2.10;;;;;;;;;;5104073;28;20086;-81
2022/04/09 10:10:46;;;;;;;14.25;1.92;;;;;;;;;;5098069;28;20055;-80
2022/04/09 10:13:42;;;;;;;11.88;1.80;;;;;;;;;;5061580;28;20446;-84
2022/04/09 10:16:12;;;;;;;21.67;2.65;;;;;;;;;;5042441;28;20050;-82
2022/04/09 10:18:50;;;;;;;12.57;1.73;;;;;;;;;;5060370;28;20178;-85
2022/04/09 10:21:19;;;;;;;10.70;1.73;;;;;;;;;;5057742;28;20056;-86
2022/04/09 10:23:55;;;;;;;7.47;1.20;;;;;;;;;;5056994;28;20041;-86
2022/04/09 10:26:25;;;;;;;6.85;1.40;;;;;;;;;;5044057;28;20552;-86
2022/04/09 10:29:08;;;;;;;12.65;1.80;;;;;;;;;;5063661;28;20098;-86
2022/04/09 10:31:54;;;;;;;2.92;0.95;;;;;;;;;;5038037;28;20056;-86
2022/04/09 10:34:24;;;;;;;4.93;1.00;;;;;;;;;;5045743;28;20466;-84
2022/04/09 10:37:02;;;;;;;2.22;0.80;;;;;;;;;;5013038;28;20139;-86
2022/04/09 10:39:49;;;;;;;2.70;0.80;;;;;;;;;;5028775;28;20078;-85
2022/04/09 10:42:32;;;;;;;4.82;0.60;;;;;;;;;;5045920;28;20641;-85
2022/04/09 10:44:59;;;;;;;2.90;0.65;;;;;;;;;;5060945;28;20067;-85
2022/04/09 10:47:25;;;;;;;1.27;0.40;;;;;;;;;;5044171;28;20072;-86
2022/04/09 10:50:11;;;;;;;1.10;0.60;;;;;;;;;;5044119;28;20048;-86
2022/04/09 10:52:51;;;;;;;3.05;0.45;;;;;;;;;;5028624;28;20481;-86
2022/04/09 10:55:35;;;;;;;4.55;0.70;;;;;;;;;;5063170;28;20044;-86
2022/04/09 10:58:08;;;;;;;4.53;1.02;;;;;;;;;;5046614;28;20043;-86
2022/04/09 11:00:37;;;;;;;5.82;1.35;;;;;;;;;;5048744;28;20036;-86
2022/04/09 11:03:06;;;;;;;6.75;1.35;;;;;;;;;;5055509;28;20381;-85
2022/04/09 11:05:39;;;;;;;10.52;1.40;;;;;;;;;;5093823;28;20144;-86
2022/04/09 11:08:40;;;;;;;9.10;1.30;;;;;;;;;;5095347;28;20120;-86
2022/04/09 11:11:07;;;;;;;7.28;1.63;;;;;;;;;;5094073;28;20092;-85
2022/04/09 11:13:39;;;;;;;9.45;1.77;;;;;;;;;;5076444;28;20051;-85
2022/04/09 11:16:15;;;;;;;6.00;1.33;;;;;;;;;;5085967;28;20067;-87
2022/04/09 11:19:04;;;;;;;8.52;1.75;;;;;;;;;;5079636;28;20036;-87
2022/04/09 11:21:30;;;;;;;20.48;2.33;;;;;;;;;;5118319;28;20079;-86
2022/04/09 11:24:19;;;;;;;7.10;1.52;;;;;;;;;;5083186;28;20485;-86
2022/04/09 11:26:55;;;;;;;14.52;1.80;;;;;;;;;;5117224;27;20690;-85
2022/04/09 11:29:21;;;;;;;13.95;2.17;;;;;;;;;;5096846;28;20075;-85
2022/04/09 11:31:53;;;;;;;14.88;1.60;;;;;;;;;;5114800;28;20360;-86
2022/04/09 11:34:38;;;;;;;20.42;2.88;;;;;;;;;;5099152;28;20131;-86
2022/04/09 11:37:10;;;;;;;14.20;2.08;;;;;;;;;;5102577;28;20050;-86
2022/04/09 11:39:44;;;;;;;11.35;1.58;;;;;;;;;;5076259;28;20047;-86
2022/04/09 11:42:15;;;;;;;16.90;1.90;;;;;;;;;;5088764;28;20069;-86
2022/04/09 11:44:41;;;;;;;8.00;1.60;;;;;;;;;;5107032;28;20118;-86
2022/04/09 11:47:11;;;;;;;14.70;2.53;;;;;;;;;;5088045;28;20035;-85
2022/04/09 11:49:37;;;;;;;10.13;2.05;;;;;;;;;;5106817;28;20051;-86
2022/04/09 11:52:09;;;;;;;16.65;3.17;;;;;;;;;;5105227;28;20032;-86
2022/04/09 11:54:54;;;;;;;13.65;2.35;;;;;;;;;;5106503;28;20126;-84
2022/04/09 11:57:20;;;;;;;15.30;1.85;;;;;;;;;;5105485;28;20055;-86
2022/04/09 11:59:51;;;;;;;10.93;1.77;;;;;;;;;;5109638;28;20124;-85
2022/04/09 12:02:27;;;;;;;10.20;1.60;;;;;;;;;;5090258;28;20520;-85
2022/04/09 12:04:54;;;;;;;3.92;0.98;;;;;;;;;;5106195;28;20081;-85
2022/04/09 12:07:21;;;;;;;4.93;1.60;;;;;;;;;;5077486;28;20097;-85
2022/04/09 12:09:53;;;;;;;10.32;1.80;;;;;;;;;;5075807;28;20342;-86
2022/04/09 12:12:27;;;;;;;14.45;2.15;;;;;;;;;;5102356;28;20036;-84
2022/04/09 12:15:20;;;;;;;16.77;2.50;;;;;;;;;;5096999;28;20052;-85
2022/04/09 12:17:46;;;;;;;;;;;;;;;;;;5070460;28;20036;-86
2022/04/09 12:20:41;;;;;;;13.90;2.90;;;;;;;;;;5109977;28;20013;-85
2022/04/09 12:23:09;;;;;;;10.20;1.80;;;;;;;;;;5130058;28;20057;-85
2022/04/09 12:25:56;;;;;;;17.05;3.38;;;;;;;;;;5101843;28;20043;-85
2022/04/09 12:28:33;;;;;;;11.25;2.20;;;;;;;;;;5064134;28;20081;-86
2022/04/09 12:31:06;;;;;;;7.63;1.48;;;;;;;;;;5098830;28;20059;-85
2022/04/09 12:33:35;;;;;;;6.88;1.85;;;;;;;;;;5093103;28;20051;-84
2022/04/09 12:36:10;;;;;;;9.50;1.33;;;;;;;;;;5086821;28;20154;-85
2022/04/09 12:38:41;;;;;;;11.35;1.75;;;;;;;;;;5089128;28;20039;-85
2022/04/09 12:41:08;;;;;;;11.80;2.08;;;;;;;;;;5084350;28;20047;-85
2022/04/09 12:43:35;;;;;;;8.43;1.40;;;;;;;;;;5111846;27;20045;-86
2022/04/09 12:46:12;;;;;;;8.50;1.50;;;;;;;;;;5085264;28;20089;-85
2022/04/09 12:48:38;;;;;;;5.47;1.30;;;;;;;;;;5071455;28;20072;-85
2022/04/09 12:51:04;;;;;;;8.65;1.75;;;;;;;;;;5067848;28;20043;-85
2022/04/09 12:53:30;;;;;;;8.27;1.60;;;;;;;;;;5106499;28;20511;-85
2022/04/09 12:55:57;;;;;;;8.65;1.80;;;;;;;;;;5088375;28;20437;-86
2022/04/09 13:01:17;;;;;;;13.83;1.90;;;;;;;;;;5106072;28;20048;-85
2022/04/09 13:03:52;;;;;;;14.15;1.67;;;;;;;;;;5066586;28;20209;-84
2022/04/09 13:06:18;;;;;;;12.60;1.90;;;;;;;;;;5063168;28;20416;-85
2022/04/09 13:08:44;;;;;;;7.82;1.25;;;;;;;;;;5083867;28;20496;-84
2022/04/09 13:11:14;;;;;;;5.28;1.20;;;;;;;;;;5058836;28;20106;-84
2022/04/09 13:17:09;;;;;;;7.25;1.17;;;;;;;;;;5067074;28;20052;-85
2022/04/09 13:19:38;;;;;;;14.27;2.00;;;;;;;;;;5088403;28;20035;-85
2022/04/09 13:22:06;;;;;;;9.95;1.60;;;;;;;;;;5082195;28;20032;-85
2022/04/09 13:24:32;;;;;;;9.75;1.85;;;;;;;;;;5070842;28;20086;-86
2022/04/09 13:26:58;;;;;;;10.07;1.73;;;;;;;;;;5077123;28;20064;-85
2022/04/09 13:29:24;;;;;;;9.77;1.73;;;;;;;;;;5073390;28;20067;-85
2022/04/09 13:31:50;;;;;;;9.32;2.03;;;;;;;;;;5053455;28;20045;-86
2022/04/09 13:34:17;;;;;;;9.35;2.00;;;;;;;;;;5078064;28;20087;-86
2022/04/09 13:37:05;;;;;;;9.02;1.80;;;;;;;;;;5102317;28;20058;-86
2022/04/09 13:39:32;;;;;;;7.47;1.67;;;;;;;;;;5103296;28;20078;-86
2022/04/09 13:41:59;;;;;;;11.50;2.40;;;;;;;;;;5121809;28;20039;-86
2022/04/09 13:44:26;;;;;;;14.68;3.13;;;;;;;;;;5119289;27;20066;-86
2022/04/09 13:46:52;;;;;;;19.05;2.15;;;;;;;;;;5082892;28;20089;-85
2022/04/09 13:49:19;;;;;;;7.93;2.17;;;;;;;;;;5087890;28;20523;-86
2022/04/09 13:51:45;;;;;;;9.95;2.10;;;;;;;;;;5074658;28;20058;-86
2022/04/09 13:54:11;;;;;;;10.70;2.30;;;;;;;;;;5121126;28;20035;-85
2022/04/09 13:56:44;;;;;;;7.50;1.98;;;;;;;;;;5090950;28;20112;-85
2022/04/09 13:59:11;;;;;;;13.15;2.00;;;;;;;;;;5092144;28;20127;-86
2022/04/09 14:01:38;;;;;;;17.48;3.28;;;;;;;;;;5093869;28;20036;-85
2022/04/09 14:04:04;;;;;;;13.20;2.50;;;;;;;;;;5099800;28;20036;-87
2022/04/09 14:06:46;;;;;;;15.00;2.15;;;;;;;;;;5111271;28;20040;-87
2022/04/09 14:09:12;;;;;;;9.15;1.70;;;;;;;;;;5110299;28;20036;-85
2022/04/09 14:11:39;;;;;;;7.70;1.75;;;;;;;;;;5088696;28;20047;-86
2022/04/09 14:14:05;;;;;;;7.57;1.45;;;;;;;;;;5094531;22;20059;-86
2022/04/09 14:16:42;;;;;;;6.65;1.52;;;;;;;;;;5079946;28;20100;-87
2022/04/09 14:19:08;;;;;;;16.33;1.92;;;;;;;;;;5083217;28;20044;-86
2022/04/09 14:21:35;;;;;;;10.02;1.65;;;;;;;;;;5085478;28;20333;-85
2022/04/09 14:24:02;;;;;;;10.02;2.60;;;;;;;;;;5085729;28;20066;-85
2022/04/09 14:26:28;;;;;;;8.68;1.70;;;;;;;;;;5087104;28;20044;-85
2022/04/09 14:28:57;;;;;;;10.45;2.40;;;;;;;;;;5075179;28;20115;-85
2022/04/09 14:31:23;;;;;;;17.98;2.53;;;;;;;;;;5090534;28;20036;-86
2022/04/09 14:33:49;;;;;;;9.90;2.40;;;;;;;;;;5086904;28;20050;-87
2022/04/09 14:36:28;;;;;;;8.80;1.60;;;;;;;;;;5058857;28;20043;-85
2022/04/09 14:38:55;;;;;;;5.13;1.00;;;;;;;;;;5088692;28;20127;-85
2022/04/09 14:41:21;;;;;;;2.80;1.52;;;;;;;;;;5091740;28;20062;-85
2022/04/09 14:43:52;;;;;;;5.82;1.17;;;;;;;;;;5093151;28;20043;-87
2022/04/09 14:46:37;;;;;;;6.60;1.75;;;;;;;;;;5089358;28;20070;-85
2022/04/09 14:49:05;;;;;;;5.50;1.15;;;;;;;;;;5090840;28;20028;-85
2022/04/09 14:51:31;;;;;;;8.45;1.38;;;;;;;;;;5123987;27;20060;-85